Terminal Aerodrome Forecast
Issued by NWS Omaha/Valley, NE

Home | Current Version | Previous Version | Text Only | Print | Product List | Glossary On
Versions: 1 2 3 4 5 6 7 8 9 10 11 12 13 14 15 16 17 18 19 20 21 22
000
FTUS43 KOAX 311517 AAC
TAFOMA
TAF AMD
KOMA 311517Z 3115/0112 33010KT P6SM SCT025 BKN100
      TEMPO 3116/3119 BKN025
     FM311900 33010KT P6SM SCT030 BKN100
     FM010200 34005KT P6SM BKN100=

USA.gov is the U.S. government's official web portal to all federal, state and local government web resources and services.